Imlay City, Michigan
Current Conditions -  °F | °C
As of 3:53 PM on Thursday 18 Dec 2014 (Local Time) from KD95 Reporting Station
Overcast Overcast  
Wind Chill: 29°   Ceiling: 1000
Heat Index: 29°   Visibility: 10mi
Dew Point: 27°   Wind: 3mph
Humidity: 92%   Direction: 350°N
Pressure: 30.15"   Gusts: NA
Location:  43.02°N, 83.08°W
Report Text: KD95 182053Z AUTO 35003KT 10SM OVC010 M02/M03 A3015 RMK AO2 T10161027
Loading
Personal Weather Stations






























Interactive Weather Map New forecast layout! Learn more

10-Day Weather Forecast

Advertisements
Track Severe Weather on mobile